createdAt,value
2023-05-22T00:00:04.262Z,20.31
2023-05-22T00:01:03.762Z,20.19
2023-05-22T00:02:03.885Z,20.19
2023-05-22T00:03:03.604Z,20.06
2023-05-22T00:04:04.509Z,20.12
2023-05-22T00:06:04.182Z,20.00
2023-05-22T00:07:03.843Z,19.94
2023-05-22T00:08:03.852Z,19.88
2023-05-22T00:09:03.609Z,19.88
2023-05-22T00:10:04.296Z,19.75
2023-05-22T00:11:04.401Z,19.69
2023-05-22T00:12:04.406Z,19.75
2023-05-22T00:14:03.832Z,19.81
2023-05-22T00:15:03.860Z,20.12
2023-05-22T00:16:04.401Z,20.19
2023-05-22T00:17:04.051Z,20.44
2023-05-22T00:18:03.723Z,20.31
2023-05-22T00:19:04.375Z,20.12
2023-05-22T00:20:03.523Z,19.88
2023-05-22T00:22:04.089Z,19.62
2023-05-22T00:23:03.708Z,19.44
2023-05-22T00:24:03.682Z,19.38
2023-05-22T00:27:04.076Z,19.19
2023-05-22T00:29:04.330Z,19.19
2023-05-22T00:30:04.088Z,19.19
2023-05-22T00:31:03.688Z,19.12
2023-05-22T00:33:04.286Z,19.12
2023-05-22T00:34:04.513Z,19.06
2023-05-22T00:35:04.272Z,19.06
2023-05-22T00:37:04.406Z,19.06
2023-05-22T00:38:03.935Z,19.00
2023-05-22T00:39:03.519Z,19.06
2023-05-22T00:40:04.410Z,19.06
2023-05-22T00:43:04.428Z,19.06
2023-05-22T00:44:04.097Z,19.00
2023-05-22T00:46:03.797Z,18.94
2023-05-22T00:47:04.433Z,18.88
2023-05-22T00:48:04.461Z,18.88
2023-05-22T00:49:04.178Z,18.88
2023-05-22T00:51:03.612Z,18.75
2023-05-22T00:52:04.467Z,18.75
2023-05-22T00:53:03.848Z,18.69
2023-05-22T00:55:04.209Z,18.62
2023-05-22T00:57:03.457Z,18.69
2023-05-22T00:58:03.687Z,18.69
2023-05-22T01:00:04.345Z,18.75
2023-05-22T01:01:04.326Z,18.75
2023-05-22T01:02:04.472Z,18.75
2023-05-22T01:03:04.145Z,18.75
2023-05-22T01:04:04.083Z,18.69
2023-05-22T01:05:03.695Z,18.69
2023-05-22T01:06:04.348Z,18.69
2023-05-22T01:07:03.870Z,18.69
2023-05-22T01:08:03.595Z,18.62
2023-05-22T01:10:04.263Z,18.56
2023-05-22T01:12:04.406Z,18.56
2023-05-22T01:14:03.682Z,18.50
2023-05-22T01:15:04.419Z,18.50
2023-05-22T01:18:03.497Z,18.44
2023-05-22T01:19:04.212Z,18.44
2023-05-22T01:21:04.322Z,18.50
2023-05-22T01:23:03.444Z,18.44
2023-05-22T01:24:04.245Z,18.44
2023-05-22T01:25:03.949Z,18.44
2023-05-22T01:26:03.747Z,18.38
2023-05-22T01:27:03.711Z,18.38
2023-05-22T01:29:04.326Z,18.31
2023-05-22T01:30:04.024Z,18.31
2023-05-22T01:31:04.585Z,18.31
2023-05-22T01:32:04.253Z,18.25
2023-05-22T01:33:04.014Z,18.19
2023-05-22T01:34:03.818Z,18.19
2023-05-22T01:35:04.571Z,18.12
2023-05-22T01:36:04.092Z,18.06
2023-05-22T01:37:03.849Z,18.06
2023-05-22T01:38:04.329Z,18.06
2023-05-22T01:39:04.100Z,18.00
2023-05-22T01:40:04.170Z,18.00
2023-05-22T01:41:04.410Z,17.94
2023-05-22T01:43:03.865Z,17.94
2023-05-22T01:44:04.414Z,17.94
2023-05-22T01:45:04.001Z,17.94
2023-05-22T01:46:03.772Z,17.88
2023-05-22T01:47:03.514Z,17.88
2023-05-22T01:48:04.310Z,17.88
2023-05-22T01:49:03.923Z,17.94
2023-05-22T01:50:03.861Z,17.88
2023-05-22T01:51:03.776Z,17.88
2023-05-22T01:52:03.782Z,17.88
2023-05-22T01:54:04.022Z,17.81
2023-05-22T01:55:04.086Z,17.81
2023-05-22T01:56:03.702Z,17.81
2023-05-22T01:57:03.759Z,17.81
2023-05-22T01:59:04.411Z,17.75
2023-05-22T02:00:04.337Z,17.75
2023-05-22T02:01:03.968Z,17.75
2023-05-22T02:02:03.815Z,17.75
2023-05-22T02:03:03.956Z,17.75
2023-05-22T02:04:03.856Z,17.69
2023-05-22T02:05:03.621Z,17.69
2023-05-22T02:07:04.251Z,17.62
2023-05-22T02:08:04.403Z,17.62
2023-05-22T02:09:04.031Z,17.56
2023-05-22T02:10:03.771Z,17.56
2023-05-22T02:11:04.418Z,17.56
2023-05-22T02:12:04.093Z,17.56
2023-05-22T02:13:03.677Z,17.50
2023-05-22T02:14:04.329Z,17.50
2023-05-22T02:15:04.335Z,17.50
2023-05-22T02:16:04.368Z,17.50
2023-05-22T02:18:04.093Z,17.44
2023-05-22T02:19:03.955Z,17.50
2023-05-22T02:20:03.448Z,17.50
2023-05-22T02:21:04.177Z,17.50
2023-05-22T02:22:03.699Z,17.50
2023-05-22T02:24:03.530Z,17.44
2023-05-22T02:25:03.611Z,17.44
2023-05-22T02:27:04.248Z,17.38
2023-05-22T02:28:03.890Z,17.38
2023-05-22T02:29:03.955Z,17.38
2023-05-22T02:30:04.321Z,17.44
2023-05-22T02:32:03.548Z,17.44
2023-05-22T02:33:04.219Z,17.44
2023-05-22T02:35:03.662Z,17.44
2023-05-22T02:36:04.248Z,17.38
2023-05-22T02:38:03.527Z,17.31
2023-05-22T02:40:04.097Z,17.31
2023-05-22T02:41:03.608Z,17.31
2023-05-22T02:42:04.269Z,17.31
2023-05-22T02:43:03.931Z,17.31
2023-05-22T02:44:04.085Z,17.38
2023-05-22T02:46:03.755Z,17.38
2023-05-22T02:47:04.354Z,17.31
2023-05-22T02:48:04.460Z,17.31
2023-05-22T02:49:04.181Z,17.25
2023-05-22T02:51:03.650Z,17.25
2023-05-22T02:52:04.247Z,17.56
2023-05-22T02:53:03.781Z,17.88
2023-05-22T02:54:04.245Z,18.06
2023-05-22T02:56:04.421Z,17.75
2023-05-22T02:58:03.538Z,17.75
2023-05-22T02:59:03.556Z,17.75
2023-05-22T03:00:04.192Z,17.69
2023-05-22T03:01:03.774Z,17.69
2023-05-22T03:02:04.485Z,17.62
2023-05-22T03:03:04.158Z,17.50
2023-05-22T03:04:04.806Z,17.31
2023-05-22T03:05:03.691Z,17.44
2023-05-22T03:06:04.296Z,17.62
2023-05-22T03:07:04.005Z,17.62
2023-05-22T03:08:04.090Z,17.75
2023-05-22T03:09:04.101Z,17.56
2023-05-22T03:10:04.266Z,17.62
2023-05-22T03:13:04.248Z,17.38
2023-05-22T03:14:04.096Z,17.50
2023-05-22T03:15:04.250Z,17.50
2023-05-22T03:16:04.487Z,17.38
2023-05-22T03:17:03.691Z,17.50
2023-05-22T03:19:03.683Z,17.38
2023-05-22T03:20:04.251Z,17.25
2023-05-22T03:22:03.609Z,17.00
2023-05-22T03:23:03.683Z,16.88
2023-05-22T03:25:04.328Z,16.88
2023-05-22T03:26:04.354Z,17.12
2023-05-22T03:27:03.865Z,17.00
2023-05-22T03:28:04.398Z,16.88
2023-05-22T03:29:03.667Z,16.81
2023-05-22T03:30:04.185Z,16.75
2023-05-22T03:32:03.800Z,16.62
2023-05-22T03:33:04.396Z,16.56
2023-05-22T03:34:04.287Z,16.56
2023-05-22T03:36:03.787Z,16.44
2023-05-22T03:37:04.346Z,16.44
2023-05-22T03:38:03.857Z,16.44
2023-05-22T03:39:04.423Z,16.44
2023-05-22T03:40:04.353Z,16.38
2023-05-22T03:42:03.930Z,16.38
2023-05-22T03:43:04.338Z,16.38
2023-05-22T03:44:03.935Z,16.50
2023-05-22T03:45:03.469Z,16.69
2023-05-22T03:46:04.242Z,16.88
2023-05-22T03:47:03.929Z,17.00
2023-05-22T03:48:03.556Z,17.06
2023-05-22T03:49:04.249Z,17.12
2023-05-22T03:50:04.169Z,17.12
2023-05-22T03:52:03.843Z,17.19
2023-05-22T03:53:03.611Z,17.19
2023-05-22T03:54:04.319Z,17.06
2023-05-22T03:55:03.856Z,16.94
2023-05-22T03:56:03.619Z,17.06
2023-05-22T03:57:03.692Z,17.12
2023-05-22T03:58:04.420Z,17.31
2023-05-22T03:59:04.273Z,17.56
2023-05-22T04:00:03.921Z,17.44
2023-05-22T04:02:04.185Z,17.25
2023-05-22T04:03:04.455Z,17.31
2023-05-22T04:04:04.172Z,17.25
2023-05-22T04:05:03.718Z,17.25
2023-05-22T04:06:04.353Z,17.19
2023-05-22T04:07:04.696Z,17.25
2023-05-22T04:09:04.258Z,17.25
2023-05-22T04:10:03.764Z,17.38
2023-05-22T04:11:04.407Z,17.31
2023-05-22T04:12:04.089Z,17.31
2023-05-22T04:13:04.237Z,17.38
2023-05-22T04:15:03.843Z,17.56
2023-05-22T04:16:05.263Z,17.94
2023-05-22T04:17:04.010Z,18.12
2023-05-22T04:19:03.799Z,18.56
2023-05-22T04:20:03.447Z,18.56
2023-05-22T04:21:03.610Z,18.62
2023-05-22T04:23:04.242Z,18.81
2023-05-22T04:24:04.337Z,18.88
2023-05-22T04:25:04.037Z,18.94
2023-05-22T04:26:04.250Z,18.88
2023-05-22T04:27:04.016Z,19.06
2023-05-22T04:29:04.171Z,19.19
2023-05-22T04:30:03.921Z,19.38
2023-05-22T04:31:04.026Z,19.31
2023-05-22T04:33:04.116Z,19.25
2023-05-22T04:35:04.008Z,19.38
2023-05-22T04:37:03.777Z,19.50
2023-05-22T04:39:04.482Z,19.75
2023-05-22T04:41:04.282Z,19.88
2023-05-22T04:42:04.018Z,19.94
2023-05-22T04:43:04.495Z,20.06
2023-05-22T04:46:04.324Z,20.44
2023-05-22T04:47:06.897Z,20.44
2023-05-22T04:49:04.496Z,21.00
2023-05-22T04:50:04.082Z,21.06
2023-05-22T04:51:04.172Z,21.12
2023-05-22T04:52:03.781Z,21.19
2023-05-22T04:53:04.590Z,21.25
2023-05-22T04:55:05.263Z,21.44
2023-05-22T04:56:03.931Z,21.62
2023-05-22T04:57:04.088Z,21.81
2023-05-22T04:58:03.721Z,22.25
2023-05-22T05:00:03.787Z,22.75
2023-05-22T05:01:04.180Z,22.88
2023-05-22T05:02:03.711Z,23.12
2023-05-22T05:03:03.619Z,23.19
2023-05-22T05:04:03.955Z,23.31
2023-05-22T05:05:04.417Z,23.44
2023-05-22T05:06:04.498Z,23.62
2023-05-22T05:07:03.932Z,23.75
2023-05-22T05:09:04.332Z,24.00
2023-05-22T05:10:04.092Z,24.12
2023-05-22T05:11:04.341Z,24.25
2023-05-22T05:13:03.989Z,24.44
2023-05-22T05:14:04.417Z,24.50
2023-05-22T05:16:03.632Z,24.56
2023-05-22T05:17:04.459Z,24.62
2023-05-22T05:18:04.071Z,24.69
2023-05-22T05:19:04.279Z,24.75
2023-05-22T05:20:04.003Z,24.75
2023-05-22T05:21:03.813Z,24.81
2023-05-22T05:23:03.535Z,24.88
2023-05-22T05:24:04.182Z,24.88
2023-05-22T05:25:03.774Z,24.88
2023-05-22T05:26:03.857Z,25.00
2023-05-22T05:28:03.542Z,25.19
2023-05-22T05:29:04.255Z,25.50
2023-05-22T05:32:04.143Z,25.25
2023-05-22T05:33:03.734Z,25.19
2023-05-22T05:35:04.095Z,25.00
2023-05-22T05:38:04.404Z,24.56
2023-05-22T05:39:04.178Z,24.50
2023-05-22T05:41:04.247Z,24.31
2023-05-22T05:42:04.020Z,24.31
2023-05-22T05:43:03.686Z,24.31
2023-05-22T05:44:04.173Z,24.25
2023-05-22T05:46:03.810Z,24.56
2023-05-22T05:47:04.502Z,25.00
2023-05-22T05:48:04.132Z,24.94
2023-05-22T05:49:04.104Z,24.94
2023-05-22T05:50:03.556Z,25.06
2023-05-22T05:52:03.928Z,25.31
2023-05-22T05:53:03.844Z,25.75
2023-05-22T05:54:03.905Z,25.75
2023-05-22T05:55:04.596Z,25.69
2023-05-22T05:56:04.091Z,25.75
2023-05-22T05:57:04.330Z,25.88
2023-05-22T05:58:04.015Z,25.94
2023-05-22T05:59:03.699Z,26.00
2023-05-22T06:00:04.320Z,26.06
2023-05-22T06:01:04.012Z,26.25
2023-05-22T06:03:04.336Z,26.94
2023-05-22T06:04:04.478Z,26.94
2023-05-22T06:05:04.373Z,26.94
2023-05-22T06:06:04.199Z,26.81
2023-05-22T06:07:03.784Z,26.75
2023-05-22T06:08:03.851Z,26.75
2023-05-22T06:09:03.635Z,26.81
2023-05-22T06:10:04.338Z,27.06
2023-05-22T06:11:03.844Z,27.19
2023-05-22T06:12:03.784Z,27.06
2023-05-22T06:13:03.792Z,27.12
2023-05-22T06:14:03.942Z,27.31
2023-05-22T06:15:03.621Z,27.25
2023-05-22T06:16:06.492Z,27.25
2023-05-22T06:18:04.547Z,27.19
2023-05-22T06:20:03.955Z,27.06
2023-05-22T06:21:03.617Z,27.12
2023-05-22T06:22:04.246Z,27.19
2023-05-22T06:23:03.788Z,27.25
2023-05-22T06:24:03.701Z,27.31
2023-05-22T06:25:03.777Z,27.38
2023-05-22T06:27:03.530Z,27.62
2023-05-22T06:28:03.384Z,27.62
2023-05-22T06:29:03.938Z,27.69
2023-05-22T06:30:04.846Z,27.75
2023-05-22T06:31:04.026Z,27.88
2023-05-22T06:32:03.576Z,28.00
2023-05-22T06:33:03.939Z,28.25
2023-05-22T06:34:04.160Z,28.44
2023-05-22T06:35:04.128Z,28.50
2023-05-22T06:37:03.702Z,29.06
2023-05-22T06:38:03.711Z,29.06
2023-05-22T06:39:04.360Z,29.25
2023-05-22T06:40:03.929Z,29.31
2023-05-22T06:41:03.947Z,29.44
2023-05-22T06:43:03.772Z,29.69
2023-05-22T06:44:04.503Z,29.75
2023-05-22T06:45:03.714Z,29.75
2023-05-22T06:46:03.815Z,29.81
2023-05-22T06:47:03.846Z,29.94
2023-05-22T06:48:04.457Z,30.00
2023-05-22T06:49:03.945Z,30.06
2023-05-22T06:50:04.327Z,30.25
2023-05-22T06:51:04.416Z,30.31
2023-05-22T06:52:05.161Z,30.44
2023-05-22T06:53:04.519Z,30.44
2023-05-22T06:55:04.189Z,30.62
2023-05-22T06:57:03.701Z,30.81
2023-05-22T06:58:03.851Z,30.94
2023-05-22T06:59:06.185Z,31.06
2023-05-22T07:00:04.170Z,31.12
2023-05-22T07:02:04.837Z,31.19
2023-05-22T07:03:03.653Z,31.25
2023-05-22T07:04:04.338Z,31.25
2023-05-22T07:05:04.337Z,31.31
2023-05-22T07:06:04.400Z,31.31
2023-05-22T07:07:03.617Z,31.50
2023-05-22T07:08:03.816Z,31.62
2023-05-22T07:09:04.183Z,31.75
2023-05-22T07:11:04.013Z,31.94
2023-05-22T07:12:04.100Z,31.81
2023-05-22T07:13:03.790Z,31.69
2023-05-22T07:14:03.703Z,31.56
2023-05-22T07:15:03.687Z,31.50
2023-05-22T07:16:03.894Z,31.50
2023-05-22T07:17:04.256Z,31.50
2023-05-22T07:18:04.350Z,31.44
2023-05-22T07:19:04.436Z,31.38
2023-05-22T07:20:04.026Z,31.44
2023-05-22T07:21:03.708Z,31.50
2023-05-22T07:23:04.433Z,31.69
2023-05-22T07:24:04.092Z,31.69
2023-05-22T07:26:03.956Z,31.75
2023-05-22T07:27:04.355Z,31.81
2023-05-22T07:28:04.341Z,31.88
2023-05-22T07:30:04.485Z,31.38
2023-05-22T07:32:04.240Z,31.50
2023-05-22T07:33:04.076Z,31.62
2023-05-22T07:34:03.776Z,31.75
2023-05-22T07:35:04.443Z,31.69
2023-05-22T07:36:04.015Z,31.62
2023-05-22T07:38:04.346Z,31.69
2023-05-22T07:39:03.770Z,31.75
2023-05-22T07:40:03.611Z,31.75
2023-05-22T07:42:03.686Z,31.44
2023-05-22T07:43:04.355Z,31.44
2023-05-22T07:44:04.919Z,31.50
2023-05-22T07:45:03.704Z,31.56
2023-05-22T07:47:04.333Z,31.50
2023-05-22T07:48:04.580Z,31.50
2023-05-22T07:49:04.242Z,31.38
2023-05-22T07:50:04.490Z,31.50
2023-05-22T07:51:03.798Z,31.38
2023-05-22T07:52:03.459Z,31.38
2023-05-22T07:53:03.530Z,31.44
2023-05-22T07:54:04.174Z,31.50
2023-05-22T07:55:03.938Z,31.44
2023-05-22T07:57:04.460Z,31.38
2023-05-22T07:59:04.182Z,31.12
2023-05-22T08:01:04.980Z,30.94
2023-05-22T08:03:04.304Z,31.12
2023-05-22T08:04:04.608Z,31.25
2023-05-22T08:05:04.473Z,31.06
2023-05-22T08:07:04.410Z,30.75
2023-05-22T08:08:03.930Z,30.62
2023-05-22T08:09:03.919Z,30.19
2023-05-22T08:10:03.778Z,30.00
2023-05-22T08:11:04.624Z,29.75
2023-05-22T08:12:03.931Z,29.69
2023-05-22T08:13:04.168Z,29.50
2023-05-22T08:14:03.688Z,29.50
2023-05-22T08:15:03.848Z,29.50
2023-05-22T08:16:04.488Z,29.38
2023-05-22T08:17:04.117Z,29.31
2023-05-22T08:19:04.360Z,29.25
2023-05-22T08:20:04.332Z,29.12
2023-05-22T08:22:03.917Z,29.00
2023-05-22T08:24:03.688Z,28.81
2023-05-22T08:25:03.856Z,28.75
2023-05-22T08:26:04.513Z,28.94
2023-05-22T08:27:04.025Z,29.00
2023-05-22T08:29:04.339Z,29.06
2023-05-22T08:30:04.010Z,29.00
2023-05-22T08:32:03.821Z,28.94
2023-05-22T08:33:04.286Z,28.94
2023-05-22T08:34:04.022Z,28.94
2023-05-22T08:36:03.595Z,28.88
2023-05-22T08:37:04.250Z,28.69
2023-05-22T08:39:03.725Z,28.88
2023-05-22T08:40:04.020Z,29.00
2023-05-22T08:41:03.704Z,29.00
2023-05-22T08:42:04.324Z,28.94
2023-05-22T08:43:03.933Z,28.88
2023-05-22T08:45:04.244Z,28.81
2023-05-22T08:46:03.836Z,28.69
2023-05-22T08:47:04.086Z,28.62
2023-05-22T08:48:03.877Z,28.50
2023-05-22T08:49:03.452Z,28.44
2023-05-22T08:50:03.616Z,28.38
2023-05-22T08:51:03.689Z,28.31
2023-05-22T08:52:03.500Z,28.31
2023-05-22T08:53:04.084Z,28.44
2023-05-22T08:54:03.844Z,28.50
2023-05-22T08:55:03.638Z,28.44
2023-05-22T08:56:04.041Z,28.44
2023-05-22T08:57:03.768Z,28.56
2023-05-22T08:58:04.407Z,28.44
2023-05-22T08:59:03.914Z,28.31
2023-05-22T09:00:03.538Z,28.19
2023-05-22T09:01:03.584Z,28.12
2023-05-22T09:02:05.120Z,28.12
2023-05-22T09:04:04.463Z,28.31
2023-05-22T09:05:03.997Z,28.31
2023-05-22T09:06:04.187Z,28.25
2023-05-22T09:08:12.359Z,28.00
2023-05-22T09:09:03.931Z,27.94
2023-05-22T09:10:03.527Z,27.88
2023-05-22T09:11:04.173Z,27.88
2023-05-22T09:12:03.933Z,27.94
2023-05-22T09:14:03.518Z,27.94
2023-05-22T09:15:04.018Z,27.88
2023-05-22T09:16:03.793Z,27.88
2023-05-22T09:17:04.432Z,27.88
2023-05-22T09:18:04.209Z,27.88
2023-05-22T09:19:04.036Z,27.88
2023-05-22T09:20:03.690Z,27.75
2023-05-22T09:21:06.984Z,27.81
2023-05-22T09:22:04.453Z,27.94
2023-05-22T09:24:03.545Z,28.19
2023-05-22T09:25:04.614Z,28.00
2023-05-22T09:27:04.336Z,27.75
2023-05-22T09:28:04.009Z,27.69
2023-05-22T09:29:04.417Z,27.69
2023-05-22T09:30:04.262Z,27.69
2023-05-22T09:31:04.242Z,27.75
2023-05-22T09:33:04.353Z,27.56
2023-05-22T09:34:04.445Z,27.62
2023-05-22T09:35:04.000Z,27.62
2023-05-22T09:36:04.000Z,27.56
2023-05-22T09:38:04.269Z,27.44
2023-05-22T09:39:03.849Z,27.44
2023-05-22T09:40:03.613Z,27.44
2023-05-22T09:41:03.709Z,27.50
2023-05-22T09:42:03.784Z,27.50
2023-05-22T09:44:04.262Z,27.44
2023-05-22T09:45:03.788Z,27.38
2023-05-22T09:46:04.390Z,27.31
2023-05-22T09:48:03.988Z,27.25
2023-05-22T09:49:03.541Z,27.25
2023-05-22T09:50:03.696Z,27.19
2023-05-22T09:51:03.734Z,27.19
2023-05-22T09:52:04.423Z,27.31
2023-05-22T09:53:03.953Z,27.44
2023-05-22T09:54:04.087Z,27.44
2023-05-22T09:55:04.177Z,27.38
2023-05-22T09:57:03.860Z,27.19
2023-05-22T09:58:03.780Z,27.25
2023-05-22T09:59:04.352Z,27.31
2023-05-22T10:00:04.260Z,27.62
2023-05-22T10:01:04.324Z,27.69
2023-05-22T10:02:03.792Z,27.88
2023-05-22T10:03:03.601Z,27.81
2023-05-22T10:04:04.367Z,27.75
2023-05-22T10:05:03.613Z,27.81
2023-05-22T10:07:04.266Z,27.94
2023-05-22T10:08:03.791Z,28.00
2023-05-22T10:09:04.333Z,28.06
2023-05-22T10:10:03.538Z,27.88
2023-05-22T10:11:04.102Z,27.81
2023-05-22T10:12:03.972Z,27.75
2023-05-22T10:13:04.006Z,27.50
2023-05-22T10:15:04.157Z,27.44
2023-05-22T10:16:04.241Z,27.44
2023-05-22T10:17:03.853Z,27.50
2023-05-22T10:18:03.577Z,27.62
2023-05-22T10:19:04.334Z,27.75
2023-05-22T10:20:04.100Z,27.88
2023-05-22T10:22:04.262Z,27.88
2023-05-22T10:23:03.886Z,27.81
2023-05-22T10:25:03.621Z,27.69
2023-05-22T10:26:04.426Z,27.62
2023-05-22T10:28:04.087Z,27.56
2023-05-22T10:29:03.611Z,27.56
2023-05-22T10:30:04.349Z,27.56
2023-05-22T10:31:03.777Z,27.44
2023-05-22T10:33:04.358Z,27.38
2023-05-22T10:34:03.998Z,27.38
2023-05-22T10:35:03.816Z,27.31
2023-05-22T10:36:04.508Z,27.31
2023-05-22T10:37:16.379Z,27.25
2023-05-22T10:39:04.194Z,28.00
2023-05-22T10:40:03.892Z,27.94
2023-05-22T10:41:03.537Z,28.12
2023-05-22T10:42:04.119Z,28.38
2023-05-22T10:43:03.788Z,28.69
2023-05-22T10:44:03.771Z,28.62
2023-05-22T10:45:03.624Z,28.44
2023-05-22T10:46:04.516Z,28.19
2023-05-22T10:47:04.444Z,28.25
2023-05-22T10:48:04.464Z,28.19
2023-05-22T10:50:04.125Z,28.06
2023-05-22T10:52:03.693Z,27.94
2023-05-22T10:53:04.337Z,27.88
2023-05-22T10:55:03.530Z,27.69
2023-05-22T10:56:04.421Z,27.69
2023-05-22T10:57:03.852Z,27.62
2023-05-22T10:58:04.932Z,27.56
2023-05-22T10:59:04.095Z,27.62
2023-05-22T11:00:03.854Z,27.56
2023-05-22T11:01:04.327Z,27.50
2023-05-22T11:02:03.952Z,27.50
2023-05-22T11:03:16.978Z,27.62
2023-05-22T11:04:04.412Z,27.69
2023-05-22T11:05:04.111Z,27.75
2023-05-22T11:07:03.870Z,27.75
2023-05-22T11:08:03.611Z,27.69
2023-05-22T11:09:03.636Z,27.62
2023-05-22T11:10:04.260Z,27.62
2023-05-22T11:11:04.255Z,27.62
2023-05-22T11:13:03.945Z,27.62
2023-05-22T11:14:03.850Z,27.69
2023-05-22T11:15:04.435Z,27.81
2023-05-22T11:16:04.177Z,27.88
2023-05-22T11:17:03.945Z,28.00
2023-05-22T11:18:04.008Z,28.12
2023-05-22T11:19:14.663Z,28.25
2023-05-22T11:21:03.685Z,28.19
2023-05-22T11:22:03.869Z,28.06
2023-05-22T11:23:03.539Z,28.12
2023-05-22T11:24:04.168Z,28.19
2023-05-22T11:26:03.694Z,28.38
2023-05-22T11:28:04.463Z,28.50
2023-05-22T11:29:04.089Z,28.44
2023-05-22T11:30:04.180Z,28.50
2023-05-22T11:32:03.882Z,28.62
2023-05-22T11:33:03.657Z,28.50
2023-05-22T11:34:03.970Z,28.44
2023-05-22T11:36:04.177Z,28.25
2023-05-22T11:38:03.771Z,28.25
2023-05-22T11:39:03.857Z,28.19
2023-05-22T11:40:04.275Z,28.19
2023-05-22T11:41:04.115Z,28.12
2023-05-22T11:43:03.769Z,28.12
2023-05-22T11:44:03.786Z,28.06
2023-05-22T11:45:04.263Z,28.06
2023-05-22T11:46:03.854Z,28.00
2023-05-22T11:47:04.344Z,28.06
2023-05-22T11:48:04.494Z,28.06
2023-05-22T11:50:04.267Z,28.25
2023-05-22T11:51:03.770Z,28.31
2023-05-22T11:52:03.466Z,28.38
2023-05-22T11:53:04.271Z,28.31
2023-05-22T11:54:03.782Z,28.19
2023-05-22T11:55:04.440Z,28.25
2023-05-22T11:59:03.546Z,28.56
2023-05-22T12:00:04.142Z,28.50
2023-05-22T12:02:04.096Z,28.50
2023-05-22T12:04:03.601Z,28.50
2023-05-22T12:05:03.845Z,28.38
2023-05-22T12:06:03.655Z,28.38
2023-05-22T12:08:04.422Z,28.38
2023-05-22T12:09:03.932Z,28.38
2023-05-22T12:10:03.649Z,28.44
2023-05-22T12:11:03.693Z,28.50
2023-05-22T12:12:04.398Z,28.56
2023-05-22T12:14:04.189Z,28.75
2023-05-22T12:15:03.695Z,28.81
2023-05-22T12:16:03.720Z,28.81
2023-05-22T12:18:04.232Z,28.88
2023-05-22T12:19:04.454Z,28.81
2023-05-22T12:20:03.540Z,28.81
2023-05-22T12:22:04.190Z,28.88
2023-05-22T12:23:03.776Z,28.81
2023-05-22T12:24:03.694Z,28.81
2023-05-22T12:25:03.691Z,28.75
2023-05-22T12:26:04.348Z,28.81
2023-05-22T12:28:03.858Z,28.81
2023-05-22T12:29:04.407Z,28.75
2023-05-22T12:30:04.022Z,28.69
2023-05-22T12:31:04.291Z,28.75
2023-05-22T12:33:04.198Z,28.75
2023-05-22T12:34:03.849Z,28.75
2023-05-22T12:36:04.178Z,28.62
2023-05-22T12:37:03.668Z,28.56
2023-05-22T12:38:04.170Z,28.50
2023-05-22T12:40:04.488Z,28.56
2023-05-22T12:41:04.496Z,28.56
2023-05-22T12:42:04.373Z,28.56
2023-05-22T12:45:03.520Z,28.44
2023-05-22T12:46:03.603Z,28.50
2023-05-22T12:47:04.332Z,28.50
2023-05-22T12:48:03.890Z,28.50
2023-05-22T12:49:04.108Z,28.50
2023-05-22T12:51:04.428Z,28.56
2023-05-22T12:52:03.934Z,28.56
2023-05-22T12:53:03.600Z,28.50
2023-05-22T12:54:04.167Z,28.50
2023-05-22T12:55:03.798Z,28.50
2023-05-22T12:56:03.687Z,28.50
2023-05-22T12:57:03.687Z,28.44
2023-05-22T12:58:04.497Z,28.38
2023-05-22T12:59:04.186Z,28.31
2023-05-22T13:00:03.858Z,28.31
2023-05-22T13:01:03.858Z,28.44
2023-05-22T13:02:03.915Z,28.56
2023-05-22T13:03:03.819Z,28.69
2023-05-22T13:04:03.713Z,28.81
2023-05-22T13:05:04.470Z,28.94
2023-05-22T13:06:04.086Z,29.00
2023-05-22T13:07:03.848Z,29.06
2023-05-22T13:08:03.916Z,29.12
2023-05-22T13:09:04.016Z,29.19
2023-05-22T13:10:03.618Z,29.19
2023-05-22T13:12:04.359Z,29.25
2023-05-22T13:13:04.428Z,29.31
2023-05-22T13:16:04.093Z,29.31
2023-05-22T13:17:04.408Z,29.38
2023-05-22T13:19:03.934Z,29.38
2023-05-22T13:20:04.248Z,29.19
2023-05-22T13:21:03.849Z,29.00
2023-05-22T13:22:04.501Z,28.75
2023-05-22T13:24:03.618Z,28.56
2023-05-22T13:25:03.630Z,28.56
2023-05-22T13:26:04.162Z,28.44
2023-05-22T13:27:03.924Z,28.44
2023-05-22T13:29:03.540Z,28.44
2023-05-22T13:30:03.532Z,28.44
2023-05-22T13:31:04.010Z,28.38
2023-05-22T13:32:03.773Z,28.38
2023-05-22T13:33:03.836Z,28.38
2023-05-22T13:34:04.385Z,28.31
2023-05-22T13:35:04.012Z,28.38
2023-05-22T13:36:03.609Z,28.31
2023-05-22T13:37:03.692Z,28.31
2023-05-22T13:38:04.238Z,28.31
2023-05-22T13:39:04.033Z,28.31
2023-05-22T13:41:04.182Z,28.31
2023-05-22T13:42:03.791Z,28.38
2023-05-22T13:43:04.511Z,28.31
2023-05-22T13:44:04.177Z,28.25
2023-05-22T13:46:04.251Z,28.25
2023-05-22T13:47:03.819Z,28.19
2023-05-22T13:48:03.633Z,28.19
2023-05-22T13:49:04.411Z,28.19
2023-05-22T13:50:03.851Z,28.12
2023-05-22T13:51:03.926Z,28.12
2023-05-22T13:53:03.532Z,28.12
2023-05-22T13:54:04.259Z,28.19
2023-05-22T13:55:03.929Z,28.19
2023-05-22T13:56:03.942Z,28.19
2023-05-22T13:57:04.400Z,28.19
2023-05-22T13:58:04.008Z,28.25
2023-05-22T13:59:04.112Z,28.25
2023-05-22T14:01:04.453Z,28.25
2023-05-22T14:02:05.012Z,28.31
2023-05-22T14:03:04.347Z,28.31
2023-05-22T14:04:03.534Z,28.31
2023-05-22T14:07:04.265Z,28.31
2023-05-22T14:08:04.178Z,28.31
2023-05-22T14:09:03.849Z,28.19
2023-05-22T14:11:03.674Z,28.25
2023-05-22T14:12:04.168Z,28.25
2023-05-22T14:13:04.328Z,28.19
2023-05-22T14:14:04.364Z,28.12
2023-05-22T14:15:04.165Z,28.12
2023-05-22T14:16:03.769Z,28.12
2023-05-22T14:17:04.602Z,28.06
2023-05-22T14:18:04.432Z,28.06
2023-05-22T14:19:03.894Z,28.00
2023-05-22T14:21:04.850Z,28.12
2023-05-22T14:23:03.694Z,28.06
2023-05-22T14:25:04.335Z,28.06
2023-05-22T14:27:03.602Z,28.00
2023-05-22T14:29:04.419Z,28.00
2023-05-22T14:30:04.001Z,28.00
2023-05-22T14:32:04.266Z,27.88
2023-05-22T14:33:04.025Z,27.88
2023-05-22T14:34:03.762Z,27.94
2023-05-22T14:35:04.236Z,27.88
2023-05-22T14:37:04.511Z,28.25
2023-05-22T14:38:04.009Z,28.31
2023-05-22T14:39:04.030Z,28.44
2023-05-22T14:40:03.690Z,28.50
2023-05-22T14:41:03.865Z,28.56
2023-05-22T14:43:03.628Z,28.62
2023-05-22T14:44:04.276Z,28.62
2023-05-22T14:45:03.847Z,28.69
2023-05-22T14:46:03.904Z,28.69
2023-05-22T14:47:03.616Z,28.69
2023-05-22T14:48:03.731Z,28.69
2023-05-22T14:49:03.642Z,28.62
2023-05-22T14:50:17.940Z,28.38
2023-05-22T14:52:03.858Z,28.19
2023-05-22T14:53:04.412Z,28.12
2023-05-22T14:54:04.404Z,28.06
2023-05-22T14:56:04.410Z,27.88
2023-05-22T14:58:03.711Z,27.81
2023-05-22T14:59:03.778Z,27.69
2023-05-22T15:00:03.791Z,27.69
2023-05-22T15:01:04.112Z,27.62
2023-05-22T15:02:03.911Z,27.62
2023-05-22T15:03:03.927Z,27.50
2023-05-22T15:04:03.629Z,27.50
2023-05-22T15:06:03.469Z,27.44
2023-05-22T15:08:04.257Z,27.38
2023-05-22T15:09:03.785Z,27.25
2023-05-22T15:10:03.979Z,27.25
2023-05-22T15:11:03.965Z,27.25
2023-05-22T15:12:03.538Z,27.19
2023-05-22T15:13:04.174Z,27.12
2023-05-22T15:15:03.559Z,27.12
2023-05-22T15:16:04.108Z,27.12
2023-05-22T15:19:04.440Z,27.06
2023-05-22T15:21:04.102Z,27.00
2023-05-22T15:22:15.850Z,26.94
2023-05-22T15:23:03.801Z,27.25
2023-05-22T15:24:04.339Z,27.31
2023-05-22T15:26:04.095Z,27.62
2023-05-22T15:27:03.855Z,27.81
2023-05-22T15:28:03.532Z,27.81
2023-05-22T15:29:04.327Z,27.69
2023-05-22T15:31:03.621Z,27.50
2023-05-22T15:32:04.253Z,27.38
2023-05-22T15:34:03.542Z,27.25
2023-05-22T15:35:04.093Z,27.25
2023-05-22T15:36:04.103Z,27.19
2023-05-22T15:37:03.938Z,27.06
2023-05-22T15:38:03.781Z,27.06
2023-05-22T15:40:03.820Z,26.94
2023-05-22T15:41:04.493Z,26.88
2023-05-22T15:42:06.653Z,26.81
2023-05-22T15:43:03.449Z,26.75
2023-05-22T15:44:03.857Z,26.75
2023-05-22T15:46:03.564Z,26.62
2023-05-22T15:47:04.256Z,26.56
2023-05-22T15:48:03.810Z,26.50
2023-05-22T15:49:04.413Z,26.44
2023-05-22T15:51:03.961Z,26.38
2023-05-22T15:52:03.620Z,26.38
2023-05-22T15:53:04.274Z,26.31
2023-05-22T15:55:04.428Z,26.31
2023-05-22T15:57:04.408Z,26.25
2023-05-22T15:58:04.136Z,26.25
2023-05-22T15:59:03.705Z,26.19
2023-05-22T16:00:04.183Z,26.19
2023-05-22T16:01:03.805Z,26.19
2023-05-22T16:03:04.389Z,26.12